sensor_id;sensor_type;location;lat;lon;timestamp;pressure;altitude;pressure_sealevel;temperature;humidity
55424;BME280;41294;42.666;23.350;2022-10-22T00:01:06;95891.19;;;8.48;96.60
55424;BME280;41294;42.666;23.350;2022-10-22T00:03:32;95891.38;;;8.38;97.43
55424;BME280;41294;42.666;23.350;2022-10-22T00:05:58;95889.94;;;8.33;97.27
55424;BME280;41294;42.666;23.350;2022-10-22T00:08:23;95892.44;;;8.40;96.92
55424;BME280;41294;42.666;23.350;2022-10-22T00:10:49;95890.66;;;8.37;97.09
55424;BME280;41294;42.666;23.350;2022-10-22T00:13:15;95892.44;;;8.40;96.95
55424;BME280;41294;42.666;23.350;2022-10-22T00:15:41;95886.19;;;8.34;97.12
55424;BME280;41294;42.666;23.350;2022-10-22T00:18:06;95886.41;;;8.43;96.56
55424;BME280;41294;42.666;23.350;2022-10-22T00:20:31;95890.22;;;8.39;96.46
55424;BME280;41294;42.666;23.350;2022-10-22T00:22:57;95890.97;;;8.17;97.81
55424;BME280;41294;42.666;23.350;2022-10-22T00:25:23;95894.97;;;8.24;97.23
55424;BME280;41294;42.666;23.350;2022-10-22T00:27:48;95894.25;;;8.20;97.46
55424;BME280;41294;42.666;23.350;2022-10-22T00:30:14;95894.16;;;8.27;97.63
55424;BME280;41294;42.666;23.350;2022-10-22T00:32:39;95881.78;;;8.28;97.07
55424;BME280;41294;42.666;23.350;2022-10-22T00:35:05;95872.59;;;8.17;97.80
55424;BME280;41294;42.666;23.350;2022-10-22T00:37:31;95871.13;;;8.16;97.91
55424;BME280;41294;42.666;23.350;2022-10-22T00:39:56;95874.19;;;8.11;98.04
55424;BME280;41294;42.666;23.350;2022-10-22T00:42:24;95872.97;;;8.18;97.82
55424;BME280;41294;42.666;23.350;2022-10-22T00:45:04;95872.50;;;8.23;97.30
55424;BME280;41294;42.666;23.350;2022-10-22T00:47:35;95867.31;;;8.20;96.81
55424;BME280;41294;42.666;23.350;2022-10-22T00:50:06;95879.16;;;8.28;96.46
55424;BME280;41294;42.666;23.350;2022-10-22T00:52:32;95879.22;;;8.24;96.52
55424;BME280;41294;42.666;23.350;2022-10-22T00:54:58;95873.56;;;8.26;96.69
55424;BME280;41294;42.666;23.350;2022-10-22T00:57:25;95871.69;;;8.26;96.58
55424;BME280;41294;42.666;23.350;2022-10-22T00:59:50;95870.09;;;8.32;96.21
55424;BME280;41294;42.666;23.350;2022-10-22T01:02:16;95874.72;;;8.25;96.31
55424;BME280;41294;42.666;23.350;2022-10-22T01:04:41;95866.59;;;8.16;96.40
55424;BME280;41294;42.666;23.350;2022-10-22T01:07:14;95858.53;;;8.04;96.86
55424;BME280;41294;42.666;23.350;2022-10-22T01:09:52;95850.66;;;8.04;97.11
55424;BME280;41294;42.666;23.350;2022-10-22T01:12:33;95842.44;;;7.79;98.44
55424;BME280;41294;42.666;23.350;2022-10-22T01:15:21;95841.53;;;7.89;97.95
55424;BME280;41294;42.666;23.350;2022-10-22T01:18:09;95830.94;;;7.96;97.83
55424;BME280;41294;42.666;23.350;2022-10-22T01:21:19;95839.16;;;7.98;97.65
55424;BME280;41294;42.666;23.350;2022-10-22T01:29:57;95831.13;;;7.85;97.72
55424;BME280;41294;42.666;23.350;2022-10-22T01:32:25;95831.59;;;7.77;98.67
55424;BME280;41294;42.666;23.350;2022-10-22T01:35:01;95821.38;;;7.86;98.35
55424;BME280;41294;42.666;23.350;2022-10-22T01:37:29;95819.91;;;7.85;97.90
55424;BME280;41294;42.666;23.350;2022-10-22T01:39:58;95818.06;;;7.82;98.09
55424;BME280;41294;42.666;23.350;2022-10-22T01:42:24;95821.09;;;7.80;97.80
55424;BME280;41294;42.666;23.350;2022-10-22T01:44:50;95812.31;;;7.90;97.77
55424;BME280;41294;42.666;23.350;2022-10-22T01:47:25;95806.34;;;7.90;97.36
55424;BME280;41294;42.666;23.350;2022-10-22T01:52:44;95816.34;;;7.72;98.66
55424;BME280;41294;42.666;23.350;2022-10-22T02:00:45;95816.56;;;7.58;99.16
55424;BME280;41294;42.666;23.350;2022-10-22T02:03:19;95816.88;;;7.60;98.54
55424;BME280;41294;42.666;23.350;2022-10-22T02:05:52;95820.63;;;7.62;98.59
55424;BME280;41294;42.666;23.350;2022-10-22T02:08:24;95817.38;;;7.78;98.10
55424;BME280;41294;42.666;23.350;2022-10-22T02:10:52;95824.31;;;7.65;98.65
55424;BME280;41294;42.666;23.350;2022-10-22T02:13:33;95830.16;;;7.76;97.64
55424;BME280;41294;42.666;23.350;2022-10-22T02:16:02;95817.03;;;7.76;97.75
55424;BME280;41294;42.666;23.350;2022-10-22T02:18:29;95821.63;;;7.68;98.10
55424;BME280;41294;42.666;23.350;2022-10-22T02:20:57;95816.34;;;7.72;98.14
55424;BME280;41294;42.666;23.350;2022-10-22T02:23:25;95819.41;;;7.67;97.99
55424;BME280;41294;42.666;23.350;2022-10-22T02:25:57;95806.03;;;7.61;98.72
55424;BME280;41294;42.666;23.350;2022-10-22T02:28:32;95802.41;;;7.52;99.09
55424;BME280;41294;42.666;23.350;2022-10-22T02:31:08;95805.88;;;7.45;99.46
55424;BME280;41294;42.666;23.350;2022-10-22T02:33:41;95818.94;;;7.49;99.40
55424;BME280;41294;42.666;23.350;2022-10-22T02:36:09;95813.59;;;7.56;98.57
55424;BME280;41294;42.666;23.350;2022-10-22T02:38:35;95819.69;;;7.72;98.02
55424;BME280;41294;42.666;23.350;2022-10-22T02:41:02;95825.03;;;7.65;97.89
55424;BME280;41294;42.666;23.350;2022-10-22T02:43:28;95828.41;;;7.66;97.85
55424;BME280;41294;42.666;23.350;2022-10-22T02:45:53;95832.31;;;7.54;98.28
55424;BME280;41294;42.666;23.350;2022-10-22T02:48:19;95837.91;;;7.56;97.66
55424;BME280;41294;42.666;23.350;2022-10-22T02:50:44;95843.31;;;7.69;97.87
55424;BME280;41294;42.666;23.350;2022-10-22T02:53:09;95836.59;;;7.68;97.41
55424;BME280;41294;42.666;23.350;2022-10-22T02:55:35;95835.09;;;7.70;96.85
55424;BME280;41294;42.666;23.350;2022-10-22T02:58:00;95833.50;;;7.50;97.68
55424;BME280;41294;42.666;23.350;2022-10-22T03:00:26;95828.66;;;7.48;97.96
55424;BME280;41294;42.666;23.350;2022-10-22T03:02:52;95829.41;;;7.49;98.21
55424;BME280;41294;42.666;23.350;2022-10-22T03:05:17;95829.34;;;7.52;97.81
55424;BME280;41294;42.666;23.350;2022-10-22T03:07:42;95837.78;;;7.37;98.88
55424;BME280;41294;42.666;23.350;2022-10-22T03:10:08;95825.97;;;7.52;98.29
55424;BME280;41294;42.666;23.350;2022-10-22T03:12:34;95834.53;;;7.56;97.92
55424;BME280;41294;42.666;23.350;2022-10-22T03:14:59;95835.56;;;7.62;97.62
55424;BME280;41294;42.666;23.350;2022-10-22T03:17:25;95821.34;;;7.63;96.98
55424;BME280;41294;42.666;23.350;2022-10-22T03:19:50;95825.72;;;7.43;97.75
55424;BME280;41294;42.666;23.350;2022-10-22T03:22:22;95830.53;;;7.48;98.17
55424;BME280;41294;42.666;23.350;2022-10-22T03:24:53;95824.50;;;7.51;98.02
55424;BME280;41294;42.666;23.350;2022-10-22T03:27:21;95821.19;;;7.47;97.70
55424;BME280;41294;42.666;23.350;2022-10-22T03:29:48;95812.06;;;7.32;98.53
55424;BME280;41294;42.666;23.350;2022-10-22T03:32:15;95814.56;;;7.39;98.62
55424;BME280;41294;42.666;23.350;2022-10-22T03:34:40;95817.44;;;7.48;97.63
55424;BME280;41294;42.666;23.350;2022-10-22T03:37:05;95817.50;;;7.44;97.41
55424;BME280;41294;42.666;23.350;2022-10-22T03:39:33;95807.66;;;7.52;97.14
55424;BME280;41294;42.666;23.350;2022-10-22T03:41:59;95802.88;;;7.47;96.83
55424;BME280;41294;42.666;23.350;2022-10-22T03:44:26;95802.97;;;7.40;97.04
55424;BME280;41294;42.666;23.350;2022-10-22T03:46:52;95804.53;;;7.34;97.31
55424;BME280;41294;42.666;23.350;2022-10-22T03:49:18;95802.78;;;7.24;98.13
55424;BME280;41294;42.666;23.350;2022-10-22T03:51:43;95808.06;;;7.21;98.35
55424;BME280;41294;42.666;23.350;2022-10-22T03:54:09;95806.09;;;7.28;98.52
55424;BME280;41294;42.666;23.350;2022-10-22T03:56:34;95824.84;;;7.27;98.65
55424;BME280;41294;42.666;23.350;2022-10-22T03:59:00;95813.88;;;7.35;97.60
55424;BME280;41294;42.666;23.350;2022-10-22T04:01:27;95815.75;;;7.34;97.66
55424;BME280;41294;42.666;23.350;2022-10-22T04:03:53;95820.69;;;7.29;97.95
55424;BME280;41294;42.666;23.350;2022-10-22T04:06:18;95811.00;;;7.26;98.11
55424;BME280;41294;42.666;23.350;2022-10-22T04:08:44;95813.34;;;7.17;98.62
55424;BME280;41294;42.666;23.350;2022-10-22T04:11:10;95802.78;;;7.24;99.02
55424;BME280;41294;42.666;23.350;2022-10-22T04:13:36;95805.28;;;7.34;98.24
55424;BME280;41294;42.666;23.350;2022-10-22T04:18:31;95804.81;;;7.39;97.76
55424;BME280;41294;42.666;23.350;2022-10-22T04:20:57;95797.31;;;7.41;98.00
55424;BME280;41294;42.666;23.350;2022-10-22T04:23:22;95798.97;;;7.32;98.82
55424;BME280;41294;42.666;23.350;2022-10-22T04:25:48;95792.91;;;7.35;99.15
55424;BME280;41294;42.666;23.350;2022-10-22T04:28:13;95800.25;;;7.47;98.47
55424;BME280;41294;42.666;23.350;2022-10-22T04:30:38;95798.28;;;7.54;98.54
55424;BME280;41294;42.666;23.350;2022-10-22T04:33:04;95791.94;;;7.52;98.58
55424;BME280;41294;42.666;23.350;2022-10-22T04:35:29;95800.03;;;7.61;98.29
55424;BME280;41294;42.666;23.350;2022-10-22T04:37:55;95798.59;;;7.56;98.67
55424;BME280;41294;42.666;23.350;2022-10-22T04:40:20;95801.16;;;7.60;99.09
55424;BME280;41294;42.666;23.350;2022-10-22T04:42:46;95807.22;;;7.80;98.28
55424;BME280;41294;42.666;23.350;2022-10-22T04:45:12;95806.69;;;7.92;97.67
55424;BME280;41294;42.666;23.350;2022-10-22T04:47:37;95804.06;;;7.92;97.34
55424;BME280;41294;42.666;23.350;2022-10-22T04:50:03;95807.75;;;7.94;97.54
55424;BME280;41294;42.666;23.350;2022-10-22T04:52:29;95800.84;;;8.04;96.82
55424;BME280;41294;42.666;23.350;2022-10-22T04:54:55;95803.53;;;8.00;97.66
55424;BME280;41294;42.666;23.350;2022-10-22T04:57:22;95806.78;;;8.08;97.39
55424;BME280;41294;42.666;23.350;2022-10-22T04:59:47;95818.78;;;8.09;97.20
55424;BME280;41294;42.666;23.350;2022-10-22T05:02:13;95816.00;;;8.19;97.10
55424;BME280;41294;42.666;23.350;2022-10-22T05:04:38;95820.44;;;8.22;97.84
55424;BME280;41294;42.666;23.350;2022-10-22T05:07:03;95815.09;;;8.48;96.14
55424;BME280;41294;42.666;23.350;2022-10-22T05:09:29;95822.59;;;8.69;95.34
55424;BME280;41294;42.666;23.350;2022-10-22T05:11:54;95821.81;;;8.72;94.43
55424;BME280;41294;42.666;23.350;2022-10-22T05:14:22;95831.25;;;8.89;93.95
55424;BME280;41294;42.666;23.350;2022-10-22T05:16:49;95843.03;;;8.81;94.25
55424;BME280;41294;42.666;23.350;2022-10-22T05:19:23;95834.72;;;8.83;94.28
55424;BME280;41294;42.666;23.350;2022-10-22T05:21:55;95831.91;;;8.74;94.66
55424;BME280;41294;42.666;23.350;2022-10-22T05:24:22;95839.50;;;8.68;95.06
55424;BME280;41294;42.666;23.350;2022-10-22T05:26:49;95837.94;;;8.71;95.58
55424;BME280;41294;42.666;23.350;2022-10-22T05:29:15;95825.44;;;8.59;95.55
55424;BME280;41294;42.666;23.350;2022-10-22T05:31:40;95835.31;;;8.51;96.53
55424;BME280;41294;42.666;23.350;2022-10-22T05:34:06;95839.63;;;8.61;96.21
55424;BME280;41294;42.666;23.350;2022-10-22T05:36:31;95832.91;;;8.60;96.26
55424;BME280;41294;42.666;23.350;2022-10-22T05:38:57;95843.09;;;8.55;96.87
55424;BME280;41294;42.666;23.350;2022-10-22T05:41:24;95845.66;;;8.81;96.04
55424;BME280;41294;42.666;23.350;2022-10-22T05:43:53;95849.06;;;8.98;95.03
55424;BME280;41294;42.666;23.350;2022-10-22T05:46:21;95847.84;;;9.02;94.54
55424;BME280;41294;42.666;23.350;2022-10-22T05:48:57;95850.47;;;9.02;94.77
55424;BME280;41294;42.666;23.350;2022-10-22T05:51:25;95844.28;;;9.12;94.22
55424;BME280;41294;42.666;23.350;2022-10-22T05:53:55;95836.13;;;9.26;94.00
55424;BME280;41294;42.666;23.350;2022-10-22T05:56:21;95843.66;;;10.26;90.13
55424;BME280;41294;42.666;23.350;2022-10-22T05:58:48;95836.66;;;10.52;87.77
55424;BME280;41294;42.666;23.350;2022-10-22T06:03:44;95842.84;;;10.29;89.04
55424;BME280;41294;42.666;23.350;2022-10-22T06:08:53;95848.94;;;10.26;88.87
55424;BME280;41294;42.666;23.350;2022-10-22T06:11:21;95843.88;;;10.92;86.21
55424;BME280;41294;42.666;23.350;2022-10-22T06:13:47;95843.59;;;11.55;83.84
55424;BME280;41294;42.666;23.350;2022-10-22T06:16:13;95844.56;;;11.61;82.48
55424;BME280;41294;42.666;23.350;2022-10-22T06:18:39;95842.13;;;12.17;80.33
55424;BME280;41294;42.666;23.350;2022-10-22T06:21:12;95846.69;;;12.84;78.07
55424;BME280;41294;42.666;23.350;2022-10-22T06:23:39;95846.50;;;13.42;74.97
55424;BME280;41294;42.666;23.350;2022-10-22T06:26:05;95847.59;;;13.84;72.77
55424;BME280;41294;42.666;23.350;2022-10-22T06:28:32;95853.94;;;14.17;71.00
55424;BME280;41294;42.666;23.350;2022-10-22T06:30:59;95843.53;;;14.49;69.16
55424;BME280;41294;42.666;23.350;2022-10-22T06:33:26;95840.16;;;14.93;67.51
55424;BME280;41294;42.666;23.350;2022-10-22T06:35:51;95845.63;;;15.26;65.80
55424;BME280;41294;42.666;23.350;2022-10-22T06:38:17;95851.63;;;15.35;64.43
55424;BME280;41294;42.666;23.350;2022-10-22T06:40:45;95850.84;;;15.62;64.29
55424;BME280;41294;42.666;23.350;2022-10-22T06:43:12;95850.94;;;16.08;62.42
55424;BME280;41294;42.666;23.350;2022-10-22T06:45:38;95846.13;;;15.98;62.13
55424;BME280;41294;42.666;23.350;2022-10-22T06:48:04;95843.22;;;15.87;61.77
55424;BME280;41294;42.666;23.350;2022-10-22T06:50:33;95843.91;;;15.64;63.11
55424;BME280;41294;42.666;23.350;2022-10-22T06:52:59;95845.53;;;16.35;61.29
55424;BME280;41294;42.666;23.350;2022-10-22T06:55:25;95834.28;;;15.75;62.18
55424;BME280;41294;42.666;23.350;2022-10-22T06:57:50;95843.13;;;14.95;65.22
55424;BME280;41294;42.666;23.350;2022-10-22T07:00:16;95840.16;;;15.29;64.89
55424;BME280;41294;42.666;23.350;2022-10-22T07:02:41;95850.78;;;16.12;63.28
55424;BME280;41294;42.666;23.350;2022-10-22T07:05:07;95847.97;;;17.09;59.09
55424;BME280;41294;42.666;23.350;2022-10-22T07:07:33;95851.69;;;16.64;59.56
55424;BME280;41294;42.666;23.350;2022-10-22T07:09:58;95839.38;;;16.76;58.82
55424;BME280;41294;42.666;23.350;2022-10-22T07:12:24;95838.28;;;16.97;59.07
55424;BME280;41294;42.666;23.350;2022-10-22T07:14:50;95836.78;;;16.44;59.99
55424;BME280;41294;42.666;23.350;2022-10-22T07:17:15;95838.19;;;17.29;58.12
55424;BME280;41294;42.666;23.350;2022-10-22T07:19:41;95833.97;;;17.66;56.85
55424;BME280;41294;42.666;23.350;2022-10-22T07:22:06;95839.00;;;18.27;55.49
55424;BME280;41294;42.666;23.350;2022-10-22T07:24:32;95839.25;;;18.63;54.32
55424;BME280;41294;42.666;23.350;2022-10-22T07:26:57;95835.28;;;18.79;54.10
55424;BME280;41294;42.666;23.350;2022-10-22T07:29:23;95831.41;;;19.19;52.88
55424;BME280;41294;42.666;23.350;2022-10-22T07:31:48;95834.09;;;17.91;54.45
55424;BME280;41294;42.666;23.350;2022-10-22T07:34:14;95831.03;;;17.49;56.53
55424;BME280;41294;42.666;23.350;2022-10-22T07:36:39;95823.41;;;18.06;56.00
55424;BME280;41294;42.666;23.350;2022-10-22T07:39:05;95830.81;;;18.70;53.15
55424;BME280;41294;42.666;23.350;2022-10-22T07:41:30;95829.19;;;19.43;51.39
55424;BME280;41294;42.666;23.350;2022-10-22T07:43:56;95820.63;;;19.65;50.96
55424;BME280;41294;42.666;23.350;2022-10-22T07:46:22;95826.13;;;18.25;52.67
55424;BME280;41294;42.666;23.350;2022-10-22T07:48:48;95813.81;;;17.22;57.24
55424;BME280;41294;42.666;23.350;2022-10-22T07:51:14;95812.28;;;18.41;53.46
55424;BME280;41294;42.666;23.350;2022-10-22T07:53:40;95807.50;;;17.77;55.21
55424;BME280;41294;42.666;23.350;2022-10-22T07:56:06;95796.56;;;18.89;52.67
55424;BME280;41294;42.666;23.350;2022-10-22T07:58:31;95794.97;;;19.78;50.33
55424;BME280;41294;42.666;23.350;2022-10-22T08:00:58;95803.22;;;20.64;47.90
55424;BME280;41294;42.666;23.350;2022-10-22T08:03:30;95805.34;;;20.43;47.69
55424;BME280;41294;42.666;23.350;2022-10-22T08:05:55;95804.50;;;19.84;49.30
55424;BME280;41294;42.666;23.350;2022-10-22T08:08:21;95807.50;;;19.36;50.33
55424;BME280;41294;42.666;23.350;2022-10-22T08:10:50;95803.91;;;18.28;53.69
55424;BME280;41294;42.666;23.350;2022-10-22T08:13:17;95794.28;;;18.56;52.56
55424;BME280;41294;42.666;23.350;2022-10-22T08:15:43;95781.50;;;19.31;51.17
55424;BME280;41294;42.666;23.350;2022-10-22T08:18:08;95794.59;;;20.90;47.89
55424;BME280;41294;42.666;23.350;2022-10-22T08:20:34;95794.44;;;22.03;45.28
55424;BME280;41294;42.666;23.350;2022-10-22T08:23:00;95791.66;;;22.41;43.33
55424;BME280;41294;42.666;23.350;2022-10-22T08:25:26;95784.22;;;18.91;50.60
55424;BME280;41294;42.666;23.350;2022-10-22T08:27:51;95781.84;;;18.13;53.45
55424;BME280;41294;42.666;23.350;2022-10-22T08:30:17;95779.38;;;18.90;51.71
55424;BME280;41294;42.666;23.350;2022-10-22T08:32:43;95777.81;;;19.59;50.21
55424;BME280;41294;42.666;23.350;2022-10-22T08:35:08;95782.03;;;18.90;50.88
55424;BME280;41294;42.666;23.350;2022-10-22T08:37:34;95783.06;;;19.43;51.11
55424;BME280;41294;42.666;23.350;2022-10-22T08:40:00;95781.25;;;20.43;48.02
55424;BME280;41294;42.666;23.350;2022-10-22T08:42:49;95778.66;;;20.60;47.52
55424;BME280;41294;42.666;23.350;2022-10-22T08:45:32;95787.00;;;17.83;53.78
55424;BME280;41294;42.666;23.350;2022-10-22T08:48:21;95787.84;;;18.88;52.18
55424;BME280;41294;42.666;23.350;2022-10-22T08:50:53;95778.78;;;18.01;54.26
55424;BME280;41294;42.666;23.350;2022-10-22T08:53:24;95777.25;;;19.19;51.54
55424;BME280;41294;42.666;23.350;2022-10-22T08:55:53;95781.06;;;19.69;49.74
55424;BME280;41294;42.666;23.350;2022-10-22T08:58:34;95776.31;;;19.83;49.63
55424;BME280;41294;42.666;23.350;2022-10-22T09:01:23;95785.31;;;17.36;56.06
55424;BME280;41294;42.666;23.350;2022-10-22T09:04:01;95777.59;;;19.06;52.14
55424;BME280;41294;42.666;23.350;2022-10-22T09:06:31;95777.06;;;18.77;52.27
55424;BME280;41294;42.666;23.350;2022-10-22T09:08:58;95779.44;;;17.33;56.11
55424;BME280;41294;42.666;23.350;2022-10-22T09:13:50;95774.16;;;16.80;57.95
55424;BME280;41294;42.666;23.350;2022-10-22T09:16:22;95770.34;;;17.88;55.40
55424;BME280;41294;42.666;23.350;2022-10-22T09:19:08;95763.34;;;19.40;51.76
55424;BME280;41294;42.666;23.350;2022-10-22T09:21:51;95766.53;;;20.11;50.05
55424;BME280;41294;42.666;23.350;2022-10-22T09:24:31;95766.94;;;18.61;52.33
55424;BME280;41294;42.666;23.350;2022-10-22T09:27:00;95762.34;;;17.25;56.63
55424;BME280;41294;42.666;23.350;2022-10-22T09:29:36;95761.72;;;17.93;55.57
55424;BME280;41294;42.666;23.350;2022-10-22T09:32:01;95747.16;;;19.85;50.85
55424;BME280;41294;42.666;23.350;2022-10-22T09:34:27;95748.84;;;20.25;48.76
55424;BME280;41294;42.666;23.350;2022-10-22T09:37:01;95744.25;;;21.05;47.16
55424;BME280;41294;42.666;23.350;2022-10-22T09:39:53;95745.31;;;19.66;49.03
55424;BME280;41294;42.666;23.350;2022-10-22T09:42:19;95745.06;;;18.57;52.87
55424;BME280;41294;42.666;23.350;2022-10-22T09:44:58;95735.13;;;18.18;54.31
55424;BME280;41294;42.666;23.350;2022-10-22T09:53:19;95711.66;;;18.87;52.17
55424;BME280;41294;42.666;23.350;2022-10-22T09:55:54;95716.31;;;18.92;52.16
55424;BME280;41294;42.666;23.350;2022-10-22T09:58:21;95723.22;;;17.59;56.55
55424;BME280;41294;42.666;23.350;2022-10-22T10:00:53;95726.13;;;17.76;56.56
55424;BME280;41294;42.666;23.350;2022-10-22T10:03:26;95713.41;;;18.90;53.36
55424;BME280;41294;42.666;23.350;2022-10-22T10:05:54;95716.53;;;19.14;52.31
55424;BME280;41294;42.666;23.350;2022-10-22T10:08:21;95708.09;;;19.52;51.15
55424;BME280;41294;42.666;23.350;2022-10-22T10:11:10;95699.06;;;20.49;48.93
55424;BME280;41294;42.666;23.350;2022-10-22T10:13:51;95701.19;;;20.23;49.01
55424;BME280;41294;42.666;23.350;2022-10-22T10:21:46;95707.66;;;16.80;59.03
55424;BME280;41294;42.666;23.350;2022-10-22T10:24:20;95696.94;;;17.67;56.83
55424;BME280;41294;42.666;23.350;2022-10-22T10:29:35;95697.13;;;18.37;54.07
55424;BME280;41294;42.666;23.350;2022-10-22T10:35:10;95684.13;;;20.15;50.07
55424;BME280;41294;42.666;23.350;2022-10-22T10:37:45;95688.38;;;20.55;48.79
55424;BME280;41294;42.666;23.350;2022-10-22T10:40:44;95672.41;;;20.02;50.18
55424;BME280;41294;42.666;23.350;2022-10-22T10:46:17;95657.56;;;19.12;52.01
55424;BME280;41294;42.666;23.350;2022-10-22T11:00:17;95633.69;;;18.72;53.20
55424;BME280;41294;42.666;23.350;2022-10-22T11:05:59;95619.53;;;19.28;52.77
55424;BME280;41294;42.666;23.350;2022-10-22T11:08:36;95608.28;;;20.07;50.77
55424;BME280;41294;42.666;23.350;2022-10-22T11:11:29;95610.31;;;18.93;52.84
55424;BME280;41294;42.666;23.350;2022-10-22T11:14:13;95600.09;;;18.91;53.14
55424;BME280;41294;42.666;23.350;2022-10-22T11:17:04;95601.44;;;19.48;51.66
55424;BME280;41294;42.666;23.350;2022-10-22T11:19:41;95589.34;;;20.22;49.69
55424;BME280;41294;42.666;23.350;2022-10-22T11:22:24;95589.44;;;20.76;48.29
55424;BME280;41294;42.666;23.350;2022-10-22T11:25:02;95586.72;;;21.09;47.90
55424;BME280;41294;42.666;23.350;2022-10-22T11:27:37;95579.50;;;19.86;50.61
55424;BME280;41294;42.666;23.350;2022-10-22T11:30:14;95577.53;;;19.76;50.68
55424;BME280;41294;42.666;23.350;2022-10-22T11:32:41;95576.09;;;19.27;52.48
55424;BME280;41294;42.666;23.350;2022-10-22T11:35:13;95559.34;;;19.27;52.28
55424;BME280;41294;42.666;23.350;2022-10-22T11:37:41;95559.53;;;19.71;52.07
55424;BME280;41294;42.666;23.350;2022-10-22T11:40:15;95556.28;;;20.08;50.47
55424;BME280;41294;42.666;23.350;2022-10-22T11:43:07;95557.53;;;20.51;49.87
55424;BME280;41294;42.666;23.350;2022-10-22T11:45:40;95548.53;;;20.98;48.62
55424;BME280;41294;42.666;23.350;2022-10-22T11:58:27;95550.00;;;19.53;52.07
55424;BME280;41294;42.666;23.350;2022-10-22T12:01:20;95542.19;;;20.30;50.18
55424;BME280;41294;42.666;23.350;2022-10-22T12:04:18;95538.09;;;20.45;49.78
55424;BME280;41294;42.666;23.350;2022-10-22T12:07:01;95537.69;;;19.67;50.59
55424;BME280;41294;42.666;23.350;2022-10-22T12:09:29;95531.69;;;19.30;51.99
55424;BME280;41294;42.666;23.350;2022-10-22T12:12:12;95530.91;;;19.77;50.99
55424;BME280;41294;42.666;23.350;2022-10-22T12:14:55;95531.75;;;20.70;48.80
55424;BME280;41294;42.666;23.350;2022-10-22T12:17:22;95522.75;;;20.73;47.95
55424;BME280;41294;42.666;23.350;2022-10-22T12:19:53;95526.19;;;20.57;48.47
55424;BME280;41294;42.666;23.350;2022-10-22T12:22:27;95518.38;;;20.86;47.96
55424;BME280;41294;42.666;23.350;2022-10-22T12:24:55;95508.94;;;21.48;46.90
55424;BME280;41294;42.666;23.350;2022-10-22T12:27:39;95520.22;;;21.86;45.64
55424;BME280;41294;42.666;23.350;2022-10-22T12:30:19;95511.16;;;22.30;44.68
55424;BME280;41294;42.666;23.350;2022-10-22T12:32:46;95510.59;;;22.42;44.79
55424;BME280;41294;42.666;23.350;2022-10-22T12:35:17;95515.19;;;20.88;47.58
55424;BME280;41294;42.666;23.350;2022-10-22T12:37:47;95509.13;;;20.60;48.31
55424;BME280;41294;42.666;23.350;2022-10-22T12:42:51;95501.06;;;21.71;46.35
55424;BME280;41294;42.666;23.350;2022-10-22T12:45:17;95499.63;;;22.05;45.55
55424;BME280;41294;42.666;23.350;2022-10-22T12:47:47;95494.84;;;21.36;46.47
55424;BME280;41294;42.666;23.350;2022-10-22T12:50:17;95491.38;;;20.30;48.50
55424;BME280;41294;42.666;23.350;2022-10-22T12:52:44;95491.13;;;20.28;49.19
55424;BME280;41294;42.666;23.350;2022-10-22T12:55:15;95492.09;;;20.58;48.99
55424;BME280;41294;42.666;23.350;2022-10-22T12:57:41;95484.25;;;21.09;47.89
55424;BME280;41294;42.666;23.350;2022-10-22T13:00:22;95483.88;;;21.40;46.94
55424;BME280;41294;42.666;23.350;2022-10-22T13:02:48;95477.06;;;20.38;48.75
55424;BME280;41294;42.666;23.350;2022-10-22T13:05:25;95480.69;;;20.46;48.82
55424;BME280;41294;42.666;23.350;2022-10-22T13:08:00;95484.28;;;20.87;48.02
55424;BME280;41294;42.666;23.350;2022-10-22T13:10:36;95478.75;;;20.08;49.09
55424;BME280;41294;42.666;23.350;2022-10-22T13:13:03;95475.81;;;20.50;48.77
55424;BME280;41294;42.666;23.350;2022-10-22T13:15:32;95472.66;;;20.57;48.92
55424;BME280;41294;42.666;23.350;2022-10-22T13:18:17;95471.41;;;20.64;48.12
55424;BME280;41294;42.666;23.350;2022-10-22T13:21:00;95474.09;;;20.69;47.69
55424;BME280;41294;42.666;23.350;2022-10-22T13:23:30;95459.97;;;20.74;47.86
55424;BME280;41294;42.666;23.350;2022-10-22T13:25:58;95471.91;;;20.73;48.05
55424;BME280;41294;42.666;23.350;2022-10-22T13:28:25;95461.44;;;20.69;48.24
55424;BME280;41294;42.666;23.350;2022-10-22T13:31:08;95459.28;;;20.19;49.67
55424;BME280;41294;42.666;23.350;2022-10-22T13:33:39;95464.41;;;20.39;48.78
55424;BME280;41294;42.666;23.350;2022-10-22T13:36:05;95465.13;;;20.39;48.90
55424;BME280;41294;42.666;23.350;2022-10-22T13:38:31;95460.50;;;20.56;48.61
55424;BME280;41294;42.666;23.350;2022-10-22T13:40:57;95455.16;;;20.56;48.56
55424;BME280;41294;42.666;23.350;2022-10-22T13:43:24;95455.16;;;20.34;49.27
55424;BME280;41294;42.666;23.350;2022-10-22T13:45:56;95456.63;;;20.46;48.98
55424;BME280;41294;42.666;23.350;2022-10-22T13:48:24;95449.09;;;20.23;49.94
55424;BME280;41294;42.666;23.350;2022-10-22T13:50:51;95450.56;;;20.18;50.25
55424;BME280;41294;42.666;23.350;2022-10-22T13:53:21;95446.66;;;20.14;50.46
55424;BME280;41294;42.666;23.350;2022-10-22T13:55:47;95455.63;;;20.05;50.17
55424;BME280;41294;42.666;23.350;2022-10-22T13:58:19;95455.91;;;20.24;50.11
55424;BME280;41294;42.666;23.350;2022-10-22T14:00:49;95457.38;;;20.36;49.96
55424;BME280;41294;42.666;23.350;2022-10-22T14:03:17;95455.63;;;20.05;50.52
55424;BME280;41294;42.666;23.350;2022-10-22T14:05:47;95454.16;;;19.93;50.72
55424;BME280;41294;42.666;23.350;2022-10-22T14:08:19;95454.88;;;19.94;50.74
55424;BME280;41294;42.666;23.350;2022-10-22T14:10:45;95457.84;;;20.12;50.21
55424;BME280;41294;42.666;23.350;2022-10-22T14:13:15;95455.19;;;20.12;49.94
55424;BME280;41294;42.666;23.350;2022-10-22T14:15:42;95449.84;;;20.12;50.44
55424;BME280;41294;42.666;23.350;2022-10-22T14:18:11;95448.13;;;20.04;50.35
55424;BME280;41294;42.666;23.350;2022-10-22T14:20:40;95445.22;;;20.24;50.14